sensor_id;sensor_type;location;lat;lon;timestamp;P1;durP1;ratioP1;P2;durP2;ratioP2
42978;SDS011;28616;44.746;19.678;2023-11-19T00:02:23;30.55;;;14.52;;
42978;SDS011;28616;44.746;19.678;2023-11-19T00:04:49;29.85;;;14.85;;
42978;SDS011;28616;44.746;19.678;2023-11-19T00:07:14;32.40;;;15.18;;
42978;SDS011;28616;44.746;19.678;2023-11-19T00:09:40;33.75;;;16.45;;
42978;SDS011;28616;44.746;19.678;2023-11-19T00:12:08;32.08;;;14.27;;
42978;SDS011;28616;44.746;19.678;2023-11-19T00:14:34;27.92;;;12.73;;
42978;SDS011;28616;44.746;19.678;2023-11-19T00:17:00;30.17;;;13.45;;
42978;SDS011;28616;44.746;19.678;2023-11-19T00:19:26;29.35;;;13.73;;
42978;SDS011;28616;44.746;19.678;2023-11-19T00:21:52;28.33;;;14.02;;
42978;SDS011;28616;44.746;19.678;2023-11-19T00:24:19;24.73;;;12.40;;
42978;SDS011;28616;44.746;19.678;2023-11-19T00:26:45;23.42;;;11.73;;
42978;SDS011;28616;44.746;19.678;2023-11-19T00:29:11;19.90;;;9.55;;
42978;SDS011;28616;44.746;19.678;2023-11-19T00:31:38;18.40;;;9.48;;
42978;SDS011;28616;44.746;19.678;2023-11-19T00:34:04;18.75;;;8.23;;
42978;SDS011;28616;44.746;19.678;2023-11-19T00:36:31;15.13;;;7.57;;
42978;SDS011;28616;44.746;19.678;2023-11-19T00:38:57;16.20;;;7.88;;
42978;SDS011;28616;44.746;19.678;2023-11-19T00:41:23;17.27;;;8.48;;
42978;SDS011;28616;44.746;19.678;2023-11-19T00:43:50;18.75;;;9.32;;
42978;SDS011;28616;44.746;19.678;2023-11-19T00:46:16;23.27;;;10.73;;
42978;SDS011;28616;44.746;19.678;2023-11-19T00:48:42;18.05;;;10.27;;
42978;SDS011;28616;44.746;19.678;2023-11-19T00:51:08;22.50;;;11.05;;
42978;SDS011;28616;44.746;19.678;2023-11-19T00:53:36;25.70;;;12.75;;
42978;SDS011;28616;44.746;19.678;2023-11-19T00:56:02;31.05;;;13.27;;
42978;SDS011;28616;44.746;19.678;2023-11-19T00:58:28;29.88;;;14.60;;
42978;SDS011;28616;44.746;19.678;2023-11-19T01:00:54;26.42;;;12.73;;
42978;SDS011;28616;44.746;19.678;2023-11-19T01:03:22;25.45;;;11.77;;
42978;SDS011;28616;44.746;19.678;2023-11-19T01:05:48;26.75;;;13.90;;
42978;SDS011;28616;44.746;19.678;2023-11-19T01:08:14;26.15;;;14.15;;
42978;SDS011;28616;44.746;19.678;2023-11-19T01:10:41;29.15;;;12.07;;
42978;SDS011;28616;44.746;19.678;2023-11-19T01:13:06;21.65;;;9.50;;
42978;SDS011;28616;44.746;19.678;2023-11-19T01:15:32;22.10;;;9.73;;
42978;SDS011;28616;44.746;19.678;2023-11-19T01:17:58;21.38;;;10.55;;
42978;SDS011;28616;44.746;19.678;2023-11-19T01:20:24;26.23;;;11.50;;
42978;SDS011;28616;44.746;19.678;2023-11-19T01:22:50;23.88;;;11.45;;
42978;SDS011;28616;44.746;19.678;2023-11-19T01:25:16;23.08;;;10.52;;
42978;SDS011;28616;44.746;19.678;2023-11-19T01:27:42;20.05;;;9.57;;
42978;SDS011;28616;44.746;19.678;2023-11-19T01:30:08;23.35;;;9.48;;
42978;SDS011;28616;44.746;19.678;2023-11-19T01:32:40;18.48;;;9.18;;
42978;SDS011;28616;44.746;19.678;2023-11-19T01:35:06;24.67;;;12.52;;
42978;SDS011;28616;44.746;19.678;2023-11-19T01:37:33;32.50;;;13.52;;
42978;SDS011;28616;44.746;19.678;2023-11-19T01:40:02;31.83;;;13.35;;
42978;SDS011;28616;44.746;19.678;2023-11-19T01:42:36;29.08;;;12.48;;
42978;SDS011;28616;44.746;19.678;2023-11-19T01:45:06;24.40;;;11.18;;
42978;SDS011;28616;44.746;19.678;2023-11-19T01:47:35;25.42;;;11.63;;
42978;SDS011;28616;44.746;19.678;2023-11-19T01:50:02;25.50;;;11.25;;
42978;SDS011;28616;44.746;19.678;2023-11-19T01:52:34;25.23;;;11.10;;
42978;SDS011;28616;44.746;19.678;2023-11-19T01:55:03;19.98;;;9.82;;
42978;SDS011;28616;44.746;19.678;2023-11-19T01:57:30;20.63;;;9.85;;
42978;SDS011;28616;44.746;19.678;2023-11-19T01:59:56;18.58;;;9.00;;
42978;SDS011;28616;44.746;19.678;2023-11-19T02:02:22;17.42;;;8.55;;
42978;SDS011;28616;44.746;19.678;2023-11-19T02:04:49;18.95;;;8.73;;
42978;SDS011;28616;44.746;19.678;2023-11-19T02:07:16;24.70;;;11.27;;
42978;SDS011;28616;44.746;19.678;2023-11-19T02:09:45;25.58;;;10.80;;
42978;SDS011;28616;44.746;19.678;2023-11-19T02:12:11;21.23;;;10.50;;
42978;SDS011;28616;44.746;19.678;2023-11-19T02:14:37;21.90;;;9.43;;
42978;SDS011;28616;44.746;19.678;2023-11-19T02:17:03;18.73;;;8.50;;
42978;SDS011;28616;44.746;19.678;2023-11-19T02:19:30;18.58;;;9.38;;
42978;SDS011;28616;44.746;19.678;2023-11-19T02:21:55;20.25;;;9.13;;
42978;SDS011;28616;44.746;19.678;2023-11-19T02:24:22;22.13;;;10.52;;
42978;SDS011;28616;44.746;19.678;2023-11-19T02:29:33;18.58;;;9.00;;
42978;SDS011;28616;44.746;19.678;2023-11-19T02:32:00;20.85;;;9.25;;
42978;SDS011;28616;44.746;19.678;2023-11-19T02:34:28;20.83;;;8.23;;
42978;SDS011;28616;44.746;19.678;2023-11-19T02:36:54;16.40;;;9.18;;
42978;SDS011;28616;44.746;19.678;2023-11-19T02:39:19;17.65;;;8.85;;
42978;SDS011;28616;44.746;19.678;2023-11-19T02:41:47;17.35;;;8.25;;
42978;SDS011;28616;44.746;19.678;2023-11-19T02:44:15;19.05;;;8.25;;
42978;SDS011;28616;44.746;19.678;2023-11-19T02:46:42;16.98;;;9.27;;
42978;SDS011;28616;44.746;19.678;2023-11-19T02:49:08;19.60;;;7.80;;
42978;SDS011;28616;44.746;19.678;2023-11-19T02:51:33;15.25;;;8.57;;
42978;SDS011;28616;44.746;19.678;2023-11-19T02:54:03;19.92;;;8.52;;
42978;SDS011;28616;44.746;19.678;2023-11-19T02:56:29;17.15;;;8.90;;
42978;SDS011;28616;44.746;19.678;2023-11-19T02:58:59;20.83;;;10.20;;
42978;SDS011;28616;44.746;19.678;2023-11-19T03:01:33;18.70;;;9.02;;
42978;SDS011;28616;44.746;19.678;2023-11-19T03:04:01;20.98;;;8.98;;
42978;SDS011;28616;44.746;19.678;2023-11-19T03:06:27;19.50;;;9.85;;
42978;SDS011;28616;44.746;19.678;2023-11-19T03:08:54;17.08;;;8.57;;
42978;SDS011;28616;44.746;19.678;2023-11-19T03:11:20;18.33;;;8.13;;
42978;SDS011;28616;44.746;19.678;2023-11-19T03:13:46;17.35;;;8.85;;
42978;SDS011;28616;44.746;19.678;2023-11-19T03:16:12;25.17;;;9.70;;
42978;SDS011;28616;44.746;19.678;2023-11-19T03:18:38;27.98;;;11.27;;
42978;SDS011;28616;44.746;19.678;2023-11-19T03:21:06;25.63;;;10.23;;
42978;SDS011;28616;44.746;19.678;2023-11-19T03:23:33;24.60;;;10.50;;
42978;SDS011;28616;44.746;19.678;2023-11-19T03:25:59;22.75;;;10.10;;
42978;SDS011;28616;44.746;19.678;2023-11-19T03:28:28;26.08;;;10.02;;
42978;SDS011;28616;44.746;19.678;2023-11-19T03:30:54;21.58;;;9.23;;
42978;SDS011;28616;44.746;19.678;2023-11-19T03:33:20;23.70;;;9.73;;
42978;SDS011;28616;44.746;19.678;2023-11-19T03:35:46;21.52;;;9.18;;
42978;SDS011;28616;44.746;19.678;2023-11-19T03:38:12;22.40;;;9.15;;
42978;SDS011;28616;44.746;19.678;2023-11-19T03:40:38;29.15;;;10.90;;
42978;SDS011;28616;44.746;19.678;2023-11-19T03:43:04;30.38;;;12.85;;
42978;SDS011;28616;44.746;19.678;2023-11-19T03:45:30;35.25;;;14.23;;
42978;SDS011;28616;44.746;19.678;2023-11-19T03:47:56;35.22;;;13.75;;
42978;SDS011;28616;44.746;19.678;2023-11-19T03:50:21;23.08;;;11.48;;
42978;SDS011;28616;44.746;19.678;2023-11-19T03:52:48;18.77;;;9.48;;
42978;SDS011;28616;44.746;19.678;2023-11-19T03:55:14;20.20;;;8.52;;
42978;SDS011;28616;44.746;19.678;2023-11-19T03:57:40;17.98;;;9.02;;
42978;SDS011;28616;44.746;19.678;2023-11-19T04:00:06;20.50;;;10.25;;
42978;SDS011;28616;44.746;19.678;2023-11-19T04:02:35;24.60;;;11.60;;
42978;SDS011;28616;44.746;19.678;2023-11-19T04:05:01;32.67;;;13.45;;
42978;SDS011;28616;44.746;19.678;2023-11-19T04:07:29;34.10;;;15.60;;
42978;SDS011;28616;44.746;19.678;2023-11-19T04:09:55;25.95;;;11.00;;
42978;SDS011;28616;44.746;19.678;2023-11-19T04:12:20;16.42;;;9.10;;
42978;SDS011;28616;44.746;19.678;2023-11-19T04:14:47;48.40;;;18.58;;
42978;SDS011;28616;44.746;19.678;2023-11-19T04:17:13;119.85;;;46.13;;
42978;SDS011;28616;44.746;19.678;2023-11-19T04:19:38;111.95;;;44.72;;
42978;SDS011;28616;44.746;19.678;2023-11-19T04:22:09;72.00;;;34.35;;
42978;SDS011;28616;44.746;19.678;2023-11-19T04:24:35;52.42;;;25.35;;
42978;SDS011;28616;44.746;19.678;2023-11-19T04:27:00;43.75;;;22.23;;
42978;SDS011;28616;44.746;19.678;2023-11-19T04:29:26;30.42;;;15.73;;
42978;SDS011;28616;44.746;19.678;2023-11-19T04:31:52;18.55;;;9.35;;
42978;SDS011;28616;44.746;19.678;2023-11-19T04:34:18;20.08;;;10.40;;
42978;SDS011;28616;44.746;19.678;2023-11-19T04:36:43;22.23;;;10.57;;
42978;SDS011;28616;44.746;19.678;2023-11-19T04:39:09;34.80;;;15.02;;
42978;SDS011;28616;44.746;19.678;2023-11-19T04:41:46;34.05;;;14.20;;
42978;SDS011;28616;44.746;19.678;2023-11-19T04:44:13;15.80;;;8.82;;
42978;SDS011;28616;44.746;19.678;2023-11-19T04:46:40;17.02;;;8.60;;
42978;SDS011;28616;44.746;19.678;2023-11-19T04:49:09;22.90;;;10.52;;
42978;SDS011;28616;44.746;19.678;2023-11-19T04:51:41;42.13;;;16.65;;
42978;SDS011;28616;44.746;19.678;2023-11-19T04:54:08;39.17;;;17.60;;
42978;SDS011;28616;44.746;19.678;2023-11-19T04:56:34;34.38;;;15.60;;
42978;SDS011;28616;44.746;19.678;2023-11-19T04:59:04;31.90;;;15.60;;
42978;SDS011;28616;44.746;19.678;2023-11-19T05:01:31;44.55;;;19.45;;
42978;SDS011;28616;44.746;19.678;2023-11-19T05:03:58;56.42;;;20.95;;
42978;SDS011;28616;44.746;19.678;2023-11-19T05:06:27;38.00;;;17.65;;
42978;SDS011;28616;44.746;19.678;2023-11-19T05:08:54;68.28;;;26.55;;
42978;SDS011;28616;44.746;19.678;2023-11-19T05:11:21;116.82;;;42.45;;
42978;SDS011;28616;44.746;19.678;2023-11-19T05:13:47;106.53;;;37.05;;
42978;SDS011;28616;44.746;19.678;2023-11-19T05:16:12;58.10;;;24.27;;
42978;SDS011;28616;44.746;19.678;2023-11-19T05:18:39;65.60;;;25.92;;
42978;SDS011;28616;44.746;19.678;2023-11-19T05:21:05;64.97;;;25.25;;
42978;SDS011;28616;44.746;19.678;2023-11-19T05:23:34;50.53;;;21.15;;
42978;SDS011;28616;44.746;19.678;2023-11-19T05:26:03;56.55;;;24.23;;
42978;SDS011;28616;44.746;19.678;2023-11-19T05:28:29;61.03;;;24.88;;
42978;SDS011;28616;44.746;19.678;2023-11-19T05:30:55;57.67;;;24.45;;
42978;SDS011;28616;44.746;19.678;2023-11-19T05:33:21;41.22;;;18.50;;
42978;SDS011;28616;44.746;19.678;2023-11-19T05:35:46;38.33;;;17.42;;
42978;SDS011;28616;44.746;19.678;2023-11-19T05:38:12;40.42;;;17.45;;
42978;SDS011;28616;44.746;19.678;2023-11-19T05:40:39;45.28;;;17.38;;
42978;SDS011;28616;44.746;19.678;2023-11-19T05:43:06;37.72;;;17.52;;
42978;SDS011;28616;44.746;19.678;2023-11-19T05:45:32;31.15;;;16.02;;
42978;SDS011;28616;44.746;19.678;2023-11-19T05:47:57;43.97;;;17.40;;
42978;SDS011;28616;44.746;19.678;2023-11-19T05:50:23;38.45;;;15.95;;
42978;SDS011;28616;44.746;19.678;2023-11-19T05:52:49;40.42;;;17.40;;
42978;SDS011;28616;44.746;19.678;2023-11-19T05:55:15;37.55;;;18.85;;
42978;SDS011;28616;44.746;19.678;2023-11-19T05:57:41;40.58;;;18.38;;
42978;SDS011;28616;44.746;19.678;2023-11-19T06:00:07;38.53;;;19.17;;
42978;SDS011;28616;44.746;19.678;2023-11-19T06:02:35;41.75;;;20.08;;
42978;SDS011;28616;44.746;19.678;2023-11-19T06:05:03;41.85;;;21.73;;
42978;SDS011;28616;44.746;19.678;2023-11-19T06:07:31;44.95;;;21.48;;
42978;SDS011;28616;44.746;19.678;2023-11-19T06:10:00;50.90;;;22.08;;
42978;SDS011;28616;44.746;19.678;2023-11-19T06:12:26;58.17;;;25.85;;
42978;SDS011;28616;44.746;19.678;2023-11-19T06:14:52;104.72;;;39.88;;
42978;SDS011;28616;44.746;19.678;2023-11-19T06:17:18;160.85;;;59.80;;
42978;SDS011;28616;44.746;19.678;2023-11-19T06:19:44;258.90;;;97.30;;
42978;SDS011;28616;44.746;19.678;2023-11-19T06:22:10;274.10;;;107.97;;
42978;SDS011;28616;44.746;19.678;2023-11-19T06:24:36;276.73;;;104.80;;
42978;SDS011;28616;44.746;19.678;2023-11-19T06:27:02;260.63;;;101.20;;
42978;SDS011;28616;44.746;19.678;2023-11-19T06:29:29;226.05;;;90.50;;
42978;SDS011;28616;44.746;19.678;2023-11-19T06:31:55;231.25;;;93.97;;
42978;SDS011;28616;44.746;19.678;2023-11-19T06:34:21;207.32;;;84.43;;
42978;SDS011;28616;44.746;19.678;2023-11-19T06:36:46;178.13;;;71.97;;
42978;SDS011;28616;44.746;19.678;2023-11-19T06:39:13;164.48;;;65.80;;
42978;SDS011;28616;44.746;19.678;2023-11-19T06:41:44;137.25;;;58.25;;
42978;SDS011;28616;44.746;19.678;2023-11-19T06:44:10;125.35;;;52.95;;
42978;SDS011;28616;44.746;19.678;2023-11-19T06:46:36;100.13;;;44.15;;
42978;SDS011;28616;44.746;19.678;2023-11-19T06:49:01;112.28;;;48.92;;
42978;SDS011;28616;44.746;19.678;2023-11-19T06:51:27;123.78;;;53.03;;
42978;SDS011;28616;44.746;19.678;2023-11-19T06:53:54;145.05;;;61.80;;
42978;SDS011;28616;44.746;19.678;2023-11-19T06:56:21;132.90;;;58.88;;
42978;SDS011;28616;44.746;19.678;2023-11-19T06:58:47;182.70;;;70.75;;
42978;SDS011;28616;44.746;19.678;2023-11-19T07:01:14;187.30;;;78.60;;
42978;SDS011;28616;44.746;19.678;2023-11-19T07:03:40;157.05;;;63.60;;
42978;SDS011;28616;44.746;19.678;2023-11-19T07:06:06;153.35;;;64.95;;
42978;SDS011;28616;44.746;19.678;2023-11-19T07:08:32;148.57;;;62.67;;
42978;SDS011;28616;44.746;19.678;2023-11-19T07:10:57;150.45;;;64.38;;
42978;SDS011;28616;44.746;19.678;2023-11-19T07:13:23;130.32;;;51.22;;
42978;SDS011;28616;44.746;19.678;2023-11-19T07:15:49;103.78;;;45.17;;
42978;SDS011;28616;44.746;19.678;2023-11-19T07:18:15;124.15;;;54.50;;
42978;SDS011;28616;44.746;19.678;2023-11-19T07:20:41;108.85;;;48.20;;
42978;SDS011;28616;44.746;19.678;2023-11-19T07:23:07;88.93;;;41.15;;
42978;SDS011;28616;44.746;19.678;2023-11-19T07:25:33;81.05;;;37.40;;
42978;SDS011;28616;44.746;19.678;2023-11-19T07:28:00;98.90;;;40.40;;
42978;SDS011;28616;44.746;19.678;2023-11-19T07:30:30;88.38;;;41.60;;
42978;SDS011;28616;44.746;19.678;2023-11-19T07:32:55;106.15;;;48.75;;
42978;SDS011;28616;44.746;19.678;2023-11-19T07:35:21;111.85;;;46.70;;
42978;SDS011;28616;44.746;19.678;2023-11-19T07:37:47;98.32;;;41.40;;
42978;SDS011;28616;44.746;19.678;2023-11-19T07:40:13;86.18;;;38.17;;
42978;SDS011;28616;44.746;19.678;2023-11-19T07:42:39;251.82;;;77.07;;
42978;SDS011;28616;44.746;19.678;2023-11-19T07:45:05;114.55;;;45.95;;
42978;SDS011;28616;44.746;19.678;2023-11-19T07:47:32;159.60;;;57.10;;
42978;SDS011;28616;44.746;19.678;2023-11-19T07:49:57;193.52;;;70.38;;
42978;SDS011;28616;44.746;19.678;2023-11-19T07:52:23;113.25;;;47.95;;
42978;SDS011;28616;44.746;19.678;2023-11-19T07:54:49;103.45;;;46.35;;
42978;SDS011;28616;44.746;19.678;2023-11-19T07:57:15;120.68;;;54.92;;
42978;SDS011;28616;44.746;19.678;2023-11-19T07:59:41;126.32;;;55.95;;
42978;SDS011;28616;44.746;19.678;2023-11-19T08:02:06;89.25;;;41.85;;
42978;SDS011;28616;44.746;19.678;2023-11-19T08:04:32;66.05;;;29.30;;
42978;SDS011;28616;44.746;19.678;2023-11-19T08:06:58;58.63;;;27.38;;
42978;SDS011;28616;44.746;19.678;2023-11-19T08:09:24;45.50;;;22.67;;
42978;SDS011;28616;44.746;19.678;2023-11-19T08:11:50;61.42;;;27.88;;
42978;SDS011;28616;44.746;19.678;2023-11-19T08:14:17;58.28;;;26.02;;
42978;SDS011;28616;44.746;19.678;2023-11-19T08:16:43;45.58;;;21.08;;
42978;SDS011;28616;44.746;19.678;2023-11-19T10:20:53;8.18;;;4.50;;
42978;SDS011;28616;44.746;19.678;2023-11-19T10:23:20;9.95;;;4.43;;
42978;SDS011;28616;44.746;19.678;2023-11-19T10:25:46;6.45;;;3.25;;
42978;SDS011;28616;44.746;19.678;2023-11-19T10:28:12;13.95;;;4.75;;
42978;SDS011;28616;44.746;19.678;2023-11-19T10:30:41;14.52;;;4.68;;
42978;SDS011;28616;44.746;19.678;2023-11-19T10:33:08;16.50;;;5.97;;
42978;SDS011;28616;44.746;19.678;2023-11-19T10:42:16;13.02;;;4.38;;
42978;SDS011;28616;44.746;19.678;2023-11-19T10:44:41;11.52;;;3.95;;
42978;SDS011;28616;44.746;19.678;2023-11-19T10:47:07;8.35;;;4.88;;
42978;SDS011;28616;44.746;19.678;2023-11-19T10:49:35;9.70;;;4.47;;
42978;SDS011;28616;44.746;19.678;2023-11-19T10:52:01;7.60;;;3.65;;
42978;SDS011;28616;44.746;19.678;2023-11-19T10:54:27;9.38;;;3.95;;
42978;SDS011;28616;44.746;19.678;2023-11-19T10:56:59;6.85;;;3.78;;
42978;SDS011;28616;44.746;19.678;2023-11-19T10:59:27;19.73;;;6.22;;
42978;SDS011;28616;44.746;19.678;2023-11-19T11:04:19;11.32;;;7.38;;
42978;SDS011;28616;44.746;19.678;2023-11-19T11:06:55;6.13;;;4.15;;
42978;SDS011;28616;44.746;19.678;2023-11-19T11:09:26;9.02;;;4.25;;
42978;SDS011;28616;44.746;19.678;2023-11-19T11:11:52;15.70;;;6.38;;
42978;SDS011;28616;44.746;19.678;2023-11-19T11:14:22;7.05;;;3.42;;
42978;SDS011;28616;44.746;19.678;2023-11-19T11:16:50;6.22;;;2.72;;
42978;SDS011;28616;44.746;19.678;2023-11-19T11:19:18;7.47;;;3.03;;
42978;SDS011;28616;44.746;19.678;2023-11-19T11:21:45;19.15;;;9.95;;
42978;SDS011;28616;44.746;19.678;2023-11-19T11:24:38;16.65;;;7.25;;
42978;SDS011;28616;44.746;19.678;2023-11-19T11:32:54;20.00;;;12.20;;
42978;SDS011;28616;44.746;19.678;2023-11-19T11:38:21;25.63;;;11.23;;
42978;SDS011;28616;44.746;19.678;2023-11-19T11:41:14;10.55;;;6.75;;
42978;SDS011;28616;44.746;19.678;2023-11-19T11:43:51;47.13;;;19.58;;
42978;SDS011;28616;44.746;19.678;2023-11-19T11:49:01;7.18;;;3.00;;
42978;SDS011;28616;44.746;19.678;2023-11-19T11:59:35;11.00;;;5.20;;
42978;SDS011;28616;44.746;19.678;2023-11-19T12:02:09;5.68;;;3.50;;
42978;SDS011;28616;44.746;19.678;2023-11-19T12:04:35;8.50;;;3.88;;
42978;SDS011;28616;44.746;19.678;2023-11-19T12:07:12;6.43;;;4.10;;
42978;SDS011;28616;44.746;19.678;2023-11-19T12:09:40;7.38;;;4.28;;
42978;SDS011;28616;44.746;19.678;2023-11-19T12:12:22;9.18;;;4.32;;
42978;SDS011;28616;44.746;19.678;2023-11-19T12:15:01;19.35;;;17.88;;
42978;SDS011;28616;44.746;19.678;2023-11-19T12:20:05;11.20;;;5.00;;
42978;SDS011;28616;44.746;19.678;2023-11-19T12:22:43;4.82;;;2.70;;
42978;SDS011;28616;44.746;19.678;2023-11-19T12:25:10;5.13;;;3.13;;
42978;SDS011;28616;44.746;19.678;2023-11-19T12:27:39;4.65;;;3.10;;
42978;SDS011;28616;44.746;19.678;2023-11-19T12:30:06;6.20;;;3.00;;
42978;SDS011;28616;44.746;19.678;2023-11-19T12:32:39;7.82;;;3.67;;
42978;SDS011;28616;44.746;19.678;2023-11-19T12:35:09;20.33;;;8.85;;
42978;SDS011;28616;44.746;19.678;2023-11-19T12:42:54;11.23;;;5.05;;
42978;SDS011;28616;44.746;19.678;2023-11-19T12:45:20;18.77;;;9.77;;
42978;SDS011;28616;44.746;19.678;2023-11-19T12:47:48;10.02;;;5.00;;
42978;SDS011;28616;44.746;19.678;2023-11-19T12:50:15;18.02;;;7.18;;
42978;SDS011;28616;44.746;19.678;2023-11-19T12:52:43;15.30;;;8.13;;
42978;SDS011;28616;44.746;19.678;2023-11-19T12:55:24;20.35;;;10.65;;
42978;SDS011;28616;44.746;19.678;2023-11-19T12:57:54;17.30;;;7.68;;
42978;SDS011;28616;44.746;19.678;2023-11-19T13:00:24;18.00;;;9.13;;
42978;SDS011;28616;44.746;19.678;2023-11-19T13:02:54;24.95;;;11.35;;
42978;SDS011;28616;44.746;19.678;2023-11-19T13:08:06;64.43;;;23.48;;
42978;SDS011;28616;44.746;19.678;2023-11-19T13:13:19;48.13;;;18.55;;
42978;SDS011;28616;44.746;19.678;2023-11-19T13:15:45;41.17;;;15.63;;
42978;SDS011;28616;44.746;19.678;2023-11-19T13:18:11;26.60;;;11.52;;
42978;SDS011;28616;44.746;19.678;2023-11-19T13:20:38;44.85;;;20.00;;
42978;SDS011;28616;44.746;19.678;2023-11-19T13:23:04;32.13;;;16.60;;
42978;SDS011;28616;44.746;19.678;2023-11-19T13:25:32;23.42;;;10.68;;
42978;SDS011;28616;44.746;19.678;2023-11-19T13:27:58;28.08;;;11.00;;
42978;SDS011;28616;44.746;19.678;2023-11-19T13:30:24;26.58;;;12.52;;
42978;SDS011;28616;44.746;19.678;2023-11-19T13:32:51;42.83;;;18.25;;
42978;SDS011;28616;44.746;19.678;2023-11-19T13:35:18;22.15;;;10.05;;
42978;SDS011;28616;44.746;19.678;2023-11-19T13:37:44;21.17;;;9.48;;
42978;SDS011;28616;44.746;19.678;2023-11-19T13:40:10;23.35;;;9.40;;
42978;SDS011;28616;44.746;19.678;2023-11-19T13:42:39;21.17;;;8.75;;
42978;SDS011;28616;44.746;19.678;2023-11-19T13:45:15;53.08;;;24.65;;
42978;SDS011;28616;44.746;19.678;2023-11-19T13:47:43;29.33;;;10.07;;
42978;SDS011;28616;44.746;19.678;2023-11-19T13:50:10;32.63;;;12.50;;
42978;SDS011;28616;44.746;19.678;2023-11-19T13:52:40;17.27;;;6.93;;
42978;SDS011;28616;44.746;19.678;2023-11-19T13:55:08;22.42;;;9.55;;
42978;SDS011;28616;44.746;19.678;2023-11-19T13:57:35;16.92;;;7.20;;
42978;SDS011;28616;44.746;19.678;2023-11-19T14:00:06;21.13;;;9.10;;
42978;SDS011;28616;44.746;19.678;2023-11-19T14:02:38;40.67;;;17.15;;
42978;SDS011;28616;44.746;19.678;2023-11-19T14:05:08;21.13;;;10.20;;
42978;SDS011;28616;44.746;19.678;2023-11-19T14:07:34;28.95;;;12.82;;
42978;SDS011;28616;44.746;19.678;2023-11-19T14:10:00;31.63;;;12.43;;
42978;SDS011;28616;44.746;19.678;2023-11-19T14:12:26;14.23;;;7.72;;
42978;SDS011;28616;44.746;19.678;2023-11-19T14:14:52;25.30;;;9.68;;
42978;SDS011;28616;44.746;19.678;2023-11-19T14:17:17;32.33;;;12.07;;
42978;SDS011;28616;44.746;19.678;2023-11-19T14:19:43;50.45;;;16.88;;
42978;SDS011;28616;44.746;19.678;2023-11-19T14:22:09;103.75;;;32.60;;
42978;SDS011;28616;44.746;19.678;2023-11-19T14:24:35;35.50;;;15.55;;
42978;SDS011;28616;44.746;19.678;2023-11-19T14:27:01;51.38;;;20.10;;
42978;SDS011;28616;44.746;19.678;2023-11-19T14:29:27;45.17;;;19.02;;
42978;SDS011;28616;44.746;19.678;2023-11-19T14:31:56;27.60;;;11.82;;
42978;SDS011;28616;44.746;19.678;2023-11-19T14:34:24;23.17;;;9.93;;
42978;SDS011;28616;44.746;19.678;2023-11-19T14:36:52;31.25;;;12.95;;
42978;SDS011;28616;44.746;19.678;2023-11-19T14:39:18;36.72;;;14.60;;
42978;SDS011;28616;44.746;19.678;2023-11-19T14:41:44;38.47;;;16.33;;
42978;SDS011;28616;44.746;19.678;2023-11-19T14:44:10;42.50;;;19.05;;
42978;SDS011;28616;44.746;19.678;2023-11-19T14:46:36;38.83;;;18.30;;
42978;SDS011;28616;44.746;19.678;2023-11-19T14:49:02;48.00;;;20.98;;
42978;SDS011;28616;44.746;19.678;2023-11-19T14:51:29;59.60;;;26.17;;
42978;SDS011;28616;44.746;19.678;2023-11-19T14:53:55;105.28;;;39.75;;
42978;SDS011;28616;44.746;19.678;2023-11-19T14:56:21;62.95;;;24.80;;
42978;SDS011;28616;44.746;19.678;2023-11-19T15:10:55;107.60;;;37.10;;
42978;SDS011;28616;44.746;19.678;2023-11-19T15:13:23;86.72;;;35.28;;
42978;SDS011;28616;44.746;19.678;2023-11-19T15:15:49;80.22;;;33.50;;
42978;SDS011;28616;44.746;19.678;2023-11-19T15:18:17;167.57;;;59.75;;
42978;SDS011;28616;44.746;19.678;2023-11-19T15:20:44;78.15;;;32.80;;
42978;SDS011;28616;44.746;19.678;2023-11-19T15:23:12;96.50;;;41.75;;
42978;SDS011;28616;44.746;19.678;2023-11-19T15:25:39;101.60;;;42.58;;
42978;SDS011;28616;44.746;19.678;2023-11-19T15:28:05;104.15;;;42.20;;
42978;SDS011;28616;44.746;19.678;2023-11-19T15:30:31;108.20;;;44.28;;
42978;SDS011;28616;44.746;19.678;2023-11-19T15:32:57;97.90;;;41.67;;
42978;SDS011;28616;44.746;19.678;2023-11-19T15:35:23;92.85;;;40.88;;
42978;SDS011;28616;44.746;19.678;2023-11-19T15:37:48;92.95;;;39.50;;
42978;SDS011;28616;44.746;19.678;2023-11-19T15:40:14;93.72;;;40.40;;
42978;SDS011;28616;44.746;19.678;2023-11-19T15:42:40;110.43;;;45.20;;
42978;SDS011;28616;44.746;19.678;2023-11-19T15:45:08;114.03;;;46.17;;
42978;SDS011;28616;44.746;19.678;2023-11-19T15:47:34;139.13;;;56.42;;
42978;SDS011;28616;44.746;19.678;2023-11-19T15:52:35;124.65;;;46.95;;
42978;SDS011;28616;44.746;19.678;2023-11-19T15:55:01;107.82;;;43.10;;
42978;SDS011;28616;44.746;19.678;2023-11-19T15:57:28;101.07;;;42.72;;
42978;SDS011;28616;44.746;19.678;2023-11-19T15:59:53;125.00;;;53.85;;
42978;SDS011;28616;44.746;19.678;2023-11-19T16:02:19;123.40;;;49.97;;
42978;SDS011;28616;44.746;19.678;2023-11-19T16:04:45;93.53;;;39.90;;
42978;SDS011;28616;44.746;19.678;2023-11-19T16:07:16;75.13;;;35.15;;
42978;SDS011;28616;44.746;19.678;2023-11-19T16:09:42;94.68;;;40.42;;
42978;SDS011;28616;44.746;19.678;2023-11-19T16:12:09;93.43;;;42.13;;
42978;SDS011;28616;44.746;19.678;2023-11-19T16:14:35;81.95;;;37.55;;
42978;SDS011;28616;44.746;19.678;2023-11-19T16:17:02;76.43;;;36.63;;
42978;SDS011;28616;44.746;19.678;2023-11-19T16:19:28;81.25;;;38.60;;
42978;SDS011;28616;44.746;19.678;2023-11-19T16:21:54;86.93;;;46.33;;
42978;SDS011;28616;44.746;19.678;2023-11-19T16:24:19;95.78;;;43.67;;
42978;SDS011;28616;44.746;19.678;2023-11-19T16:26:45;89.60;;;39.08;;
42978;SDS011;28616;44.746;19.678;2023-11-19T16:29:13;106.40;;;47.05;;
42978;SDS011;28616;44.746;19.678;2023-11-19T16:31:39;101.28;;;51.40;;
42978;SDS011;28616;44.746;19.678;2023-11-19T16:34:08;104.65;;;41.33;;
42978;SDS011;28616;44.746;19.678;2023-11-19T16:36:34;93.00;;;38.22;;
42978;SDS011;28616;44.746;19.678;2023-11-19T16:39:00;122.90;;;51.33;;
42978;SDS011;28616;44.746;19.678;2023-11-19T16:41:25;124.43;;;51.63;;
42978;SDS011;28616;44.746;19.678;2023-11-19T16:43:51;135.27;;;56.50;;
42978;SDS011;28616;44.746;19.678;2023-11-19T16:46:20;150.75;;;62.25;;
42978;SDS011;28616;44.746;19.678;2023-11-19T16:48:46;147.55;;;60.45;;
42978;SDS011;28616;44.746;19.678;2023-11-19T16:51:13;124.15;;;52.65;;
42978;SDS011;28616;44.746;19.678;2023-11-19T16:53:46;129.40;;;50.53;;
42978;SDS011;28616;44.746;19.678;2023-11-19T16:56:16;130.93;;;55.63;;
42978;SDS011;28616;44.746;19.678;2023-11-19T16:58:43;139.05;;;55.80;;
42978;SDS011;28616;44.746;19.678;2023-11-19T17:01:12;138.73;;;57.58;;
42978;SDS011;28616;44.746;19.678;2023-11-19T17:03:40;129.18;;;58.50;;
42978;SDS011;28616;44.746;19.678;2023-11-19T17:06:06;137.38;;;63.92;;
42978;SDS011;28616;44.746;19.678;2023-11-19T17:08:32;146.10;;;68.07;;
42978;SDS011;28616;44.746;19.678;2023-11-19T17:10:59;170.15;;;79.05;;
42978;SDS011;28616;44.746;19.678;2023-11-19T17:13:26;165.77;;;71.55;;